Time;durP1;ratioP1;P1;durP2;ratioP2;P2;SDS_P1;SDS_P2;PMS_P1;PMS_P2;Temp;Humidity;BMP_temperature;BMP_pressure;BME280_temperature;BME280_humidity;BME280_pressure;Samples;Min_cycle;Max_cycle;Signal;HPM_P1;HPM_P2
2023/07/30 21:19:04;;;;;;;8.65;7.85;;;;;;;19.27;83.20;99655.02;1867829;76;26913;-71
2023/07/30 21:21:30;;;;;;;9.80;8.73;;;;;;;19.12;83.65;99649.26;1824454;77;25533;-71
2023/07/30 21:23:57;;;;;;;12.47;8.35;;;;;;;19.06;83.95;99659.03;1802706;78;27159;-69
2023/07/30 21:26:25;;;;;;;261.68;181.50;;;;;;;18.99;84.28;99658.39;1824272;78;25748;-69
2023/07/30 21:28:51;;;;;;;21.37;16.73;;;;;;;18.95;84.62;99663.05;1824447;78;25653;-70
2023/07/30 21:31:19;;;;;;;18.27;16.32;;;;;;;18.89;84.71;99663.22;1824363;78;25608;-70
2023/07/30 21:33:45;;;;;;;19.15;17.10;;;;;;;18.83;84.90;99664.13;1824452;78;25428;-69
2023/07/30 21:36:12;;;;;;;20.88;18.60;;;;;;;18.78;84.57;99670.74;1824442;78;27467;-73
2023/07/30 21:38:39;;;;;;;11.43;8.33;;;;;;;18.73;84.96;99657.95;1803079;78;25397;-73
2023/07/30 21:41:05;;;;;;;13.62;8.65;;;;;;;18.67;85.26;99661.05;1823534;78;25549;-69
2023/07/30 21:43:32;;;;;;;11.55;8.03;;;;;;;18.62;85.44;99655.92;1824386;78;25560;-67
2023/07/30 21:45:59;;;;;;;9.45;7.87;;;;;;;18.58;85.54;99659.23;1824458;78;25525;-70
2023/07/30 21:48:27;;;;;;;9.83;7.90;;;;;;;18.54;85.29;99657.61;1824560;78;27510;-68
2023/07/30 21:51:03;;;;;;;10.58;8.15;;;;;;;18.48;85.49;99659.92;1824350;78;25379;-68
2023/07/30 21:53:31;;;;;;;12.73;8.35;;;;;;;18.44;85.67;99664.00;1824506;78;25385;-67
2023/07/30 21:55:58;;;;;;;12.90;11.63;;;;;;;18.41;86.00;99663.97;1824486;78;25390;-68
2023/07/30 21:58:25;;;;;;;11.03;9.15;;;;;;;18.39;86.59;99660.23;1824554;78;25400;-69
2023/07/30 22:00:58;;;;;;;9.48;8.18;;;;;;;18.37;86.82;99657.09;1824559;78;27528;-67
2023/07/30 22:03:26;;;;;;;21.10;19.35;;;;;;;18.35;86.89;99654.52;1824488;78;25390;-73
2023/07/30 22:05:52;;;;;;;14.23;12.95;;;;;;;18.33;86.79;99652.75;1824801;78;25064;-74
2023/07/30 22:08:20;;;;;;;16.82;15.53;;;;;;;18.27;86.73;99646.84;1824811;78;25447;-72
2023/07/30 22:10:50;;;;;;;85.07;79.90;;;;;;;18.26;87.19;99645.25;1824604;78;25443;-72
2023/07/30 22:13:19;;;;;;;88.82;83.33;;;;;;;18.24;87.28;99638.00;1824731;78;27446;-74
2023/07/30 22:15:46;;;;;;;86.33;80.93;;;;;;;18.22;86.97;99643.07;1824701;78;25415;-75
2023/07/30 22:18:13;;;;;;;89.47;83.75;;;;;;;18.28;87.30;99649.76;1824616;77;25515;-69
2023/07/30 22:20:40;;;;;;;89.22;82.95;;;;;;;18.18;87.50;99634.02;1824770;78;25780;-71
2023/07/30 22:23:07;;;;;;;89.40;83.37;;;;;;;18.16;87.78;99629.52;1824788;78;25437;-71
2023/07/30 22:25:34;;;;;;;89.28;83.35;;;;;;;18.14;88.19;99633.21;1824765;78;27652;-68
2023/07/30 22:28:01;;;;;;;88.07;82.37;;;;;;;18.10;87.63;99635.33;1824665;78;25373;-70
2023/07/30 22:30:28;;;;;;;92.20;86.30;;;;;;;18.07;87.39;99633.92;1824079;78;25362;-73
2023/07/30 22:32:54;;;;;;;88.80;82.90;;;;;;;18.03;87.67;99628.42;1824090;78;25380;-74
2023/07/30 22:35:21;;;;;;;88.05;82.65;;;;;;;17.99;87.33;99630.91;1824049;78;25062;-75
2023/07/30 22:37:47;;;;;;;90.90;84.85;;;;;;;17.95;87.96;99626.77;1824352;78;27539;-74
2023/07/30 22:40:13;;;;;;;89.15;83.37;;;;;;;17.91;87.65;99622.63;1823927;78;25401;-75
2023/07/30 22:42:42;;;;;;;86.67;81.32;;;;;;;17.88;87.53;99624.74;1804039;78;25379;-75
2023/07/30 22:45:11;;;;;;;88.07;82.55;;;;;;;17.84;87.61;99624.45;1824875;78;25767;-75
2023/07/30 22:47:37;;;;;;;;;;;;;;;17.82;88.16;99632.26;1826796;78;25438;-75
2023/07/30 22:50:05;;;;;;;89.70;83.95;;;;;;;17.78;88.02;99635.55;1824190;77;27563;-73
2023/07/30 22:52:31;;;;;;;87.10;81.90;;;;;;;17.75;88.39;99634.33;1823941;78;25406;-75
2023/07/30 22:54:58;;;;;;;88.12;82.62;;;;;;;17.71;88.57;99634.88;1824100;78;25368;-76
2023/07/30 22:57:24;;;;;;;90.90;85.15;;;;;;;17.69;88.99;99627.61;1824023;78;25370;-75
2023/07/30 22:59:54;;;;;;;90.83;85.22;;;;;;;17.67;88.92;99628.56;1824015;78;25377;-76
2023/07/30 23:02:20;;;;;;;88.20;82.67;;;;;;;17.65;89.37;99626.20;1824278;78;27431;-75
2023/07/30 23:04:46;;;;;;;88.85;83.27;;;;;;;17.62;88.82;99628.89;1824313;78;25448;-75
2023/07/30 23:07:13;;;;;;;87.30;82.00;;;;;;;17.61;89.07;99625.97;1824523;78;29545;-75
2023/07/30 23:09:39;;;;;;;91.35;85.35;;;;;;;17.58;89.13;99641.16;1824315;78;25387;-76
2023/07/30 23:12:07;;;;;;;87.45;82.08;;;;;;;17.55;89.31;99641.90;1824529;78;25421;-75
2023/07/30 23:14:33;;;;;;;85.85;80.55;;;;;;;17.53;89.56;99643.63;1824155;78;28176;-75
2023/07/30 23:16:59;;;;;;;87.00;81.70;;;;;;;17.51;89.70;99641.86;1824173;78;25433;-74
2023/07/30 23:19:26;;;;;;;88.17;82.78;;;;;;;17.51;89.64;99642.45;1824287;78;25370;-65
2023/07/30 23:21:54;;;;;;;161.65;147.55;;;;;;;17.48;90.16;99635.77;1824371;78;25717;-71
2023/07/30 23:24:20;;;;;;;211.18;189.35;;;;;;;17.49;90.25;99634.61;1824119;78;25480;-71
2023/07/30 23:26:46;;;;;;;103.50;96.32;;;;;;;17.50;90.50;99636.20;1824343;78;27538;-65
2023/07/30 23:29:12;;;;;;;87.55;81.97;;;;;;;17.50;90.07;99634.02;1823951;78;32815;-65
2023/07/30 23:31:38;;;;;;;86.55;81.05;;;;;;;17.51;90.03;99638.34;1824033;78;29613;-65
2023/07/30 23:34:04;;;;;;;86.45;80.92;;;;;;;17.50;90.13;99638.13;1823970;78;25874;-66
2023/07/30 23:36:30;;;;;;;88.95;83.40;;;;;;;17.49;90.03;99638.72;1823980;78;25461;-64
2023/07/30 23:38:56;;;;;;;85.20;80.12;;;;;;;17.48;89.79;99639.86;1824004;78;27447;-64
2023/07/30 23:41:23;;;;;;;87.22;81.28;;;;;;;17.48;89.83;99638.49;1823945;78;25460;-66
2023/07/30 23:43:49;;;;;;;86.45;81.15;;;;;;;17.46;90.31;99632.62;1803456;78;25433;-63
2023/07/30 23:46:15;;;;;;;86.75;81.35;;;;;;;17.45;90.20;99631.06;1824124;78;25492;-71
2023/07/30 23:48:41;;;;;;;87.82;82.53;;;;;;;17.43;90.30;99631.98;1824048;78;25453;-71
2023/07/30 23:51:07;;;;;;;90.35;84.45;;;;;;;17.42;89.93;99631.80;1803939;78;27980;-66
2023/07/30 23:53:33;;;;;;;87.17;81.82;;;;;;;17.43;89.73;99640.19;1823953;78;25448;-66
2023/07/30 23:56:00;;;;;;;88.45;82.72;;;;;;;17.39;89.79;99628.43;1824112;78;29651;-65
2023/07/30 23:58:26;;;;;;;88.20;82.75;;;;;;;17.38;89.85;99626.84;1824042;78;25726;-69
